sensor_id;sensor_type;location;lat;lon;timestamp;temperature;humidity
32839;DHT22;19182;41.820;12.808;2023-08-30T00:00:41;14.80;99.90
32839;DHT22;19182;41.820;12.808;2023-08-30T00:03:09;14.70;99.90
32839;DHT22;19182;41.820;12.808;2023-08-30T00:05:39;14.70;99.90
32839;DHT22;19182;41.820;12.808;2023-08-30T00:08:05;14.60;99.90
32839;DHT22;19182;41.820;12.808;2023-08-30T00:10:31;14.60;99.90
32839;DHT22;19182;41.820;12.808;2023-08-30T00:12:57;14.60;99.90
32839;DHT22;19182;41.820;12.808;2023-08-30T00:15:23;14.70;99.90
32839;DHT22;19182;41.820;12.808;2023-08-30T00:17:48;14.70;99.90
32839;DHT22;19182;41.820;12.808;2023-08-30T00:20:17;14.80;99.90
32839;DHT22;19182;41.820;12.808;2023-08-30T00:22:43;14.80;99.90
32839;DHT22;19182;41.820;12.808;2023-08-30T00:25:09;15.00;99.90
32839;DHT22;19182;41.820;12.808;2023-08-30T00:27:34;14.90;99.90
32839;DHT22;19182;41.820;12.808;2023-08-30T00:30:00;14.90;99.90
32839;DHT22;19182;41.820;12.808;2023-08-30T00:32:26;14.90;99.90
32839;DHT22;19182;41.820;12.808;2023-08-30T00:34:51;14.90;99.90
32839;DHT22;19182;41.820;12.808;2023-08-30T00:37:17;14.90;99.90
32839;DHT22;19182;41.820;12.808;2023-08-30T00:39:43;15.00;99.90
32839;DHT22;19182;41.820;12.808;2023-08-30T00:42:09;15.00;99.90
32839;DHT22;19182;41.820;12.808;2023-08-30T00:44:35;15.00;99.90
32839;DHT22;19182;41.820;12.808;2023-08-30T00:47:01;12.10;99.90
32839;DHT22;19182;41.820;12.808;2023-08-30T00:49:31;15.20;99.90
32839;DHT22;19182;41.820;12.808;2023-08-30T00:51:58;15.20;99.90
32839;DHT22;19182;41.820;12.808;2023-08-30T00:54:26;15.10;99.90
32839;DHT22;19182;41.820;12.808;2023-08-30T00:56:51;15.10;99.90
32839;DHT22;19182;41.820;12.808;2023-08-30T00:59:18;15.20;99.90
32839;DHT22;19182;41.820;12.808;2023-08-30T01:01:44;15.30;99.90
32839;DHT22;19182;41.820;12.808;2023-08-30T01:04:10;15.30;99.90
32839;DHT22;19182;41.820;12.808;2023-08-30T01:06:36;15.30;99.90
32839;DHT22;19182;41.820;12.808;2023-08-30T01:09:02;15.40;99.90
32839;DHT22;19182;41.820;12.808;2023-08-30T01:12:11;15.40;99.90
32839;DHT22;19182;41.820;12.808;2023-08-30T01:16:58;15.40;99.90
32839;DHT22;19182;41.820;12.808;2023-08-30T01:24:47;15.50;99.90
32839;DHT22;19182;41.820;12.808;2023-08-30T01:27:15;15.40;99.90
32839;DHT22;19182;41.820;12.808;2023-08-30T01:29:44;15.30;99.90
32839;DHT22;19182;41.820;12.808;2023-08-30T01:32:10;15.30;99.90
32839;DHT22;19182;41.820;12.808;2023-08-30T01:34:38;15.30;99.90
32839;DHT22;19182;41.820;12.808;2023-08-30T01:37:08;15.40;99.90
32839;DHT22;19182;41.820;12.808;2023-08-30T01:39:36;15.40;99.90
32839;DHT22;19182;41.820;12.808;2023-08-30T01:42:03;15.50;99.90
32839;DHT22;19182;41.820;12.808;2023-08-30T01:44:30;15.60;99.90
32839;DHT22;19182;41.820;12.808;2023-08-30T01:47:00;15.70;99.90
32839;DHT22;19182;41.820;12.808;2023-08-30T01:49:28;15.70;99.90
32839;DHT22;19182;41.820;12.808;2023-08-30T01:51:57;15.70;99.90
32839;DHT22;19182;41.820;12.808;2023-08-30T01:54:24;15.70;99.90
32839;DHT22;19182;41.820;12.808;2023-08-30T01:56:50;15.70;99.90
32839;DHT22;19182;41.820;12.808;2023-08-30T01:59:16;15.80;99.90
32839;DHT22;19182;41.820;12.808;2023-08-30T02:01:42;15.80;99.90
32839;DHT22;19182;41.820;12.808;2023-08-30T02:04:09;15.90;99.90
32839;DHT22;19182;41.820;12.808;2023-08-30T02:06:40;15.80;99.90
32839;DHT22;19182;41.820;12.808;2023-08-30T02:11:34;16.00;99.90
32839;DHT22;19182;41.820;12.808;2023-08-30T02:14:01;16.00;99.90
32839;DHT22;19182;41.820;12.808;2023-08-30T02:16:32;16.00;99.90
32839;DHT22;19182;41.820;12.808;2023-08-30T02:18:58;16.10;99.90
32839;DHT22;19182;41.820;12.808;2023-08-30T02:21:24;16.00;99.90
32839;DHT22;19182;41.820;12.808;2023-08-30T02:23:50;16.10;99.90
32839;DHT22;19182;41.820;12.808;2023-08-30T02:26:19;16.00;99.90
32839;DHT22;19182;41.820;12.808;2023-08-30T02:28:45;16.10;99.90
32839;DHT22;19182;41.820;12.808;2023-08-30T02:31:10;16.20;99.90
32839;DHT22;19182;41.820;12.808;2023-08-30T02:33:36;16.20;99.90
32839;DHT22;19182;41.820;12.808;2023-08-30T02:36:03;16.20;99.90
32839;DHT22;19182;41.820;12.808;2023-08-30T02:38:29;16.00;99.90
32839;DHT22;19182;41.820;12.808;2023-08-30T02:40:55;15.10;99.90
32839;DHT22;19182;41.820;12.808;2023-08-30T02:43:20;16.10;99.90
32839;DHT22;19182;41.820;12.808;2023-08-30T02:45:46;16.00;99.90
32839;DHT22;19182;41.820;12.808;2023-08-30T02:48:12;15.90;99.90
32839;DHT22;19182;41.820;12.808;2023-08-30T02:50:37;15.90;99.90
32839;DHT22;19182;41.820;12.808;2023-08-30T02:53:03;16.00;99.90
32839;DHT22;19182;41.820;12.808;2023-08-30T02:55:30;16.10;99.90
32839;DHT22;19182;41.820;12.808;2023-08-30T02:57:56;16.10;99.90
32839;DHT22;19182;41.820;12.808;2023-08-30T03:00:22;16.10;99.90
32839;DHT22;19182;41.820;12.808;2023-08-30T03:02:47;16.10;99.90
32839;DHT22;19182;41.820;12.808;2023-08-30T03:05:14;16.10;99.90
32839;DHT22;19182;41.820;12.808;2023-08-30T03:07:39;16.00;99.90
32839;DHT22;19182;41.820;12.808;2023-08-30T03:10:06;15.90;99.90
32839;DHT22;19182;41.820;12.808;2023-08-30T03:12:31;15.80;99.90
32839;DHT22;19182;41.820;12.808;2023-08-30T03:14:58;15.70;99.90
32839;DHT22;19182;41.820;12.808;2023-08-30T03:17:24;15.70;99.90
32839;DHT22;19182;41.820;12.808;2023-08-30T03:19:52;15.70;99.90
32839;DHT22;19182;41.820;12.808;2023-08-30T03:22:18;15.80;99.90
32839;DHT22;19182;41.820;12.808;2023-08-30T03:24:44;15.80;99.90
32839;DHT22;19182;41.820;12.808;2023-08-30T03:27:10;15.60;99.90
32839;DHT22;19182;41.820;12.808;2023-08-30T03:29:36;15.60;99.90
32839;DHT22;19182;41.820;12.808;2023-08-30T03:32:02;15.50;99.90
32839;DHT22;19182;41.820;12.808;2023-08-30T03:34:27;15.50;99.90
32839;DHT22;19182;41.820;12.808;2023-08-30T03:36:53;15.40;99.90
32839;DHT22;19182;41.820;12.808;2023-08-30T03:39:22;15.30;99.90
32839;DHT22;19182;41.820;12.808;2023-08-30T03:41:49;15.20;99.90
32839;DHT22;19182;41.820;12.808;2023-08-30T03:44:15;15.20;99.90
32839;DHT22;19182;41.820;12.808;2023-08-30T03:46:40;15.20;99.90
32839;DHT22;19182;41.820;12.808;2023-08-30T03:49:06;15.10;99.90
32839;DHT22;19182;41.820;12.808;2023-08-30T03:51:32;15.20;99.90
32839;DHT22;19182;41.820;12.808;2023-08-30T03:53:57;15.10;99.90
32839;DHT22;19182;41.820;12.808;2023-08-30T03:56:23;15.20;99.90
32839;DHT22;19182;41.820;12.808;2023-08-30T03:58:48;15.10;99.90
32839;DHT22;19182;41.820;12.808;2023-08-30T04:01:14;15.10;99.90
32839;DHT22;19182;41.820;12.808;2023-08-30T04:03:40;15.00;99.90
32839;DHT22;19182;41.820;12.808;2023-08-30T04:06:05;14.90;99.90
32839;DHT22;19182;41.820;12.808;2023-08-30T04:08:31;14.90;99.90
32839;DHT22;19182;41.820;12.808;2023-08-30T04:10:57;14.90;99.90
32839;DHT22;19182;41.820;12.808;2023-08-30T04:13:23;14.90;99.90
32839;DHT22;19182;41.820;12.808;2023-08-30T04:15:48;14.80;99.90
32839;DHT22;19182;41.820;12.808;2023-08-30T04:18:14;14.80;99.90
32839;DHT22;19182;41.820;12.808;2023-08-30T04:20:44;14.80;99.90
32839;DHT22;19182;41.820;12.808;2023-08-30T04:23:10;14.70;99.90
32839;DHT22;19182;41.820;12.808;2023-08-30T04:25:36;14.60;99.90
32839;DHT22;19182;41.820;12.808;2023-08-30T04:28:04;14.70;99.90
32839;DHT22;19182;41.820;12.808;2023-08-30T04:30:30;14.60;99.90
32839;DHT22;19182;41.820;12.808;2023-08-30T04:32:55;14.60;99.90
32839;DHT22;19182;41.820;12.808;2023-08-30T04:35:21;14.60;99.90
32839;DHT22;19182;41.820;12.808;2023-08-30T04:37:47;14.80;99.90
32839;DHT22;19182;41.820;12.808;2023-08-30T04:40:16;14.70;99.90
32839;DHT22;19182;41.820;12.808;2023-08-30T04:42:41;14.70;99.90
32839;DHT22;19182;41.820;12.808;2023-08-30T04:45:09;14.70;99.90
32839;DHT22;19182;41.820;12.808;2023-08-30T04:47:36;14.80;99.90
32839;DHT22;19182;41.820;12.808;2023-08-30T04:50:02;14.70;99.90
32839;DHT22;19182;41.820;12.808;2023-08-30T04:52:29;14.80;99.90
32839;DHT22;19182;41.820;12.808;2023-08-30T04:54:55;14.80;99.90
32839;DHT22;19182;41.820;12.808;2023-08-30T04:57:22;14.90;99.90
32839;DHT22;19182;41.820;12.808;2023-08-30T04:59:49;14.90;99.90
32839;DHT22;19182;41.820;12.808;2023-08-30T05:02:14;14.90;99.90
32839;DHT22;19182;41.820;12.808;2023-08-30T05:04:40;14.90;99.90
32839;DHT22;19182;41.820;12.808;2023-08-30T05:07:07;14.90;99.90
32839;DHT22;19182;41.820;12.808;2023-08-30T05:09:33;14.90;99.90
32839;DHT22;19182;41.820;12.808;2023-08-30T05:12:00;14.90;99.90
32839;DHT22;19182;41.820;12.808;2023-08-30T05:14:26;14.80;99.90
32839;DHT22;19182;41.820;12.808;2023-08-30T05:16:52;14.90;99.90
32839;DHT22;19182;41.820;12.808;2023-08-30T05:19:18;15.10;99.90
32839;DHT22;19182;41.820;12.808;2023-08-30T05:21:45;15.10;99.90
32839;DHT22;19182;41.820;12.808;2023-08-30T05:24:10;15.20;99.90
32839;DHT22;19182;41.820;12.808;2023-08-30T05:26:37;15.20;99.90
32839;DHT22;19182;41.820;12.808;2023-08-30T05:29:03;13.60;99.90
32839;DHT22;19182;41.820;12.808;2023-08-30T05:31:29;15.40;99.90
32839;DHT22;19182;41.820;12.808;2023-08-30T05:33:56;15.50;99.90
32839;DHT22;19182;41.820;12.808;2023-08-30T05:36:22;15.60;99.90
32839;DHT22;19182;41.820;12.808;2023-08-30T05:38:48;15.70;99.90
32839;DHT22;19182;41.820;12.808;2023-08-30T05:41:14;15.80;99.90
32839;DHT22;19182;41.820;12.808;2023-08-30T05:43:41;15.90;99.90
32839;DHT22;19182;41.820;12.808;2023-08-30T05:46:07;16.00;99.90
32839;DHT22;19182;41.820;12.808;2023-08-30T05:48:41;16.10;99.90
32839;DHT22;19182;41.820;12.808;2023-08-30T05:51:07;16.30;99.90
32839;DHT22;19182;41.820;12.808;2023-08-30T05:53:34;16.30;99.90
32839;DHT22;19182;41.820;12.808;2023-08-30T05:56:00;16.40;99.90
32839;DHT22;19182;41.820;12.808;2023-08-30T05:58:26;16.40;99.90
32839;DHT22;19182;41.820;12.808;2023-08-30T06:00:52;16.50;99.90
32839;DHT22;19182;41.820;12.808;2023-08-30T06:03:18;16.60;99.90
32839;DHT22;19182;41.820;12.808;2023-08-30T06:05:44;16.60;99.90
32839;DHT22;19182;41.820;12.808;2023-08-30T06:08:10;16.80;99.90
32839;DHT22;19182;41.820;12.808;2023-08-30T06:10:36;16.80;99.90
32839;DHT22;19182;41.820;12.808;2023-08-30T06:13:02;16.70;99.90
32839;DHT22;19182;41.820;12.808;2023-08-30T06:15:28;16.80;99.90
32839;DHT22;19182;41.820;12.808;2023-08-30T06:17:54;16.90;99.90
32839;DHT22;19182;41.820;12.808;2023-08-30T06:20:21;17.20;99.90
32839;DHT22;19182;41.820;12.808;2023-08-30T06:22:47;17.20;99.90
32839;DHT22;19182;41.820;12.808;2023-08-30T06:25:12;17.40;99.90
32839;DHT22;19182;41.820;12.808;2023-08-30T06:27:42;17.60;99.90
32839;DHT22;19182;41.820;12.808;2023-08-30T06:30:09;17.70;99.90
32839;DHT22;19182;41.820;12.808;2023-08-30T06:32:35;17.50;99.90
32839;DHT22;19182;41.820;12.808;2023-08-30T06:35:01;18.20;99.90
32839;DHT22;19182;41.820;12.808;2023-08-30T06:37:27;18.50;99.90
32839;DHT22;19182;41.820;12.808;2023-08-30T06:39:52;18.60;99.90
32839;DHT22;19182;41.820;12.808;2023-08-30T06:42:18;18.50;99.90
32839;DHT22;19182;41.820;12.808;2023-08-30T06:44:43;18.20;99.90
32839;DHT22;19182;41.820;12.808;2023-08-30T06:47:09;18.00;99.90
32839;DHT22;19182;41.820;12.808;2023-08-30T06:49:35;18.10;99.90
32839;DHT22;19182;41.820;12.808;2023-08-30T06:52:00;18.00;99.90
32839;DHT22;19182;41.820;12.808;2023-08-30T06:54:29;18.10;99.90
32839;DHT22;19182;41.820;12.808;2023-08-30T06:56:59;18.30;99.90
32839;DHT22;19182;41.820;12.808;2023-08-30T06:59:26;18.20;99.90
32839;DHT22;19182;41.820;12.808;2023-08-30T07:01:52;18.10;99.90
32839;DHT22;19182;41.820;12.808;2023-08-30T07:04:18;18.20;99.90
32839;DHT22;19182;41.820;12.808;2023-08-30T07:06:44;18.50;99.90
32839;DHT22;19182;41.820;12.808;2023-08-30T07:09:09;18.50;99.90
32839;DHT22;19182;41.820;12.808;2023-08-30T07:11:37;18.50;99.90
32839;DHT22;19182;41.820;12.808;2023-08-30T07:14:02;18.60;99.90
32839;DHT22;19182;41.820;12.808;2023-08-30T07:16:29;19.20;99.90
32839;DHT22;19182;41.820;12.808;2023-08-30T07:18:57;19.70;99.90
32839;DHT22;19182;41.820;12.808;2023-08-30T07:21:23;19.70;99.90
32839;DHT22;19182;41.820;12.808;2023-08-30T07:23:48;19.70;99.90
32839;DHT22;19182;41.820;12.808;2023-08-30T07:26:15;20.10;99.90
32839;DHT22;19182;41.820;12.808;2023-08-30T07:28:43;20.20;99.90
32839;DHT22;19182;41.820;12.808;2023-08-30T07:31:09;20.30;99.90
32839;DHT22;19182;41.820;12.808;2023-08-30T07:33:35;20.20;99.90
32839;DHT22;19182;41.820;12.808;2023-08-30T07:36:01;20.20;99.90
32839;DHT22;19182;41.820;12.808;2023-08-30T07:38:27;20.10;99.90
32839;DHT22;19182;41.820;12.808;2023-08-30T07:40:53;19.90;99.90
32839;DHT22;19182;41.820;12.808;2023-08-30T07:43:19;19.80;99.90
32839;DHT22;19182;41.820;12.808;2023-08-30T07:45:45;19.70;99.90
32839;DHT22;19182;41.820;12.808;2023-08-30T07:48:10;19.70;99.90
32839;DHT22;19182;41.820;12.808;2023-08-30T07:50:37;19.80;99.90
32839;DHT22;19182;41.820;12.808;2023-08-30T07:53:03;19.80;99.90
32839;DHT22;19182;41.820;12.808;2023-08-30T07:55:28;19.70;99.90
32839;DHT22;19182;41.820;12.808;2023-08-30T07:57:55;19.60;99.90
32839;DHT22;19182;41.820;12.808;2023-08-30T08:00:22;19.80;99.90
32839;DHT22;19182;41.820;12.808;2023-08-30T08:02:48;19.70;99.90
32839;DHT22;19182;41.820;12.808;2023-08-30T08:05:14;19.80;99.90
32839;DHT22;19182;41.820;12.808;2023-08-30T08:07:41;19.90;99.90
32839;DHT22;19182;41.820;12.808;2023-08-30T08:10:07;20.10;99.90
32839;DHT22;19182;41.820;12.808;2023-08-30T08:12:33;20.00;99.90
32839;DHT22;19182;41.820;12.808;2023-08-30T08:14:59;19.80;99.90
32839;DHT22;19182;41.820;12.808;2023-08-30T08:17:25;19.70;99.90
32839;DHT22;19182;41.820;12.808;2023-08-30T08:19:50;19.70;99.90
32839;DHT22;19182;41.820;12.808;2023-08-30T08:22:16;19.80;99.90
32839;DHT22;19182;41.820;12.808;2023-08-30T08:24:42;19.90;99.90
32839;DHT22;19182;41.820;12.808;2023-08-30T08:27:09;19.90;99.90
32839;DHT22;19182;41.820;12.808;2023-08-30T08:29:35;20.30;99.90
32839;DHT22;19182;41.820;12.808;2023-08-30T08:32:00;20.50;99.90
32839;DHT22;19182;41.820;12.808;2023-08-30T08:34:26;20.90;99.90
32839;DHT22;19182;41.820;12.808;2023-08-30T08:36:52;21.10;99.90
32839;DHT22;19182;41.820;12.808;2023-08-30T08:39:20;21.10;99.90
32839;DHT22;19182;41.820;12.808;2023-08-30T08:41:46;21.10;99.90
32839;DHT22;19182;41.820;12.808;2023-08-30T08:44:12;21.10;99.90
32839;DHT22;19182;41.820;12.808;2023-08-30T08:46:39;21.10;99.90
32839;DHT22;19182;41.820;12.808;2023-08-30T08:49:12;21.30;99.90
32839;DHT22;19182;41.820;12.808;2023-08-30T08:51:39;21.80;99.90
32839;DHT22;19182;41.820;12.808;2023-08-30T08:54:06;22.30;99.90
32839;DHT22;19182;41.820;12.808;2023-08-30T08:56:32;22.80;99.90
32839;DHT22;19182;41.820;12.808;2023-08-30T08:59:01;23.00;99.90
32839;DHT22;19182;41.820;12.808;2023-08-30T09:01:28;23.20;99.90
32839;DHT22;19182;41.820;12.808;2023-08-30T09:03:54;23.50;99.90
32839;DHT22;19182;41.820;12.808;2023-08-30T09:06:21;23.80;99.90
32839;DHT22;19182;41.820;12.808;2023-08-30T09:08:49;23.90;99.90
32839;DHT22;19182;41.820;12.808;2023-08-30T09:11:14;23.80;99.90
32839;DHT22;19182;41.820;12.808;2023-08-30T09:13:42;24.00;99.90
32839;DHT22;19182;41.820;12.808;2023-08-30T09:16:15;24.00;99.90
32839;DHT22;19182;41.820;12.808;2023-08-30T09:19:00;24.00;99.90
32839;DHT22;19182;41.820;12.808;2023-08-30T09:21:26;24.10;99.90
32839;DHT22;19182;41.820;12.808;2023-08-30T09:24:02;23.80;99.90
32839;DHT22;19182;41.820;12.808;2023-08-30T09:26:30;24.20;99.90
32839;DHT22;19182;41.820;12.808;2023-08-30T09:29:06;24.20;99.90
32839;DHT22;19182;41.820;12.808;2023-08-30T09:31:38;23.90;99.90
32839;DHT22;19182;41.820;12.808;2023-08-30T09:34:06;23.60;99.90
32839;DHT22;19182;41.820;12.808;2023-08-30T09:36:41;23.20;99.90
32839;DHT22;19182;41.820;12.808;2023-08-30T09:39:09;23.50;99.90
32839;DHT22;19182;41.820;12.808;2023-08-30T09:41:35;23.70;99.90
32839;DHT22;19182;41.820;12.808;2023-08-30T09:44:12;23.80;99.90
32839;DHT22;19182;41.820;12.808;2023-08-30T09:46:45;24.30;99.90
32839;DHT22;19182;41.820;12.808;2023-08-30T09:49:12;23.40;99.90
32839;DHT22;19182;41.820;12.808;2023-08-30T09:51:39;24.10;99.90
32839;DHT22;19182;41.820;12.808;2023-08-30T09:54:10;24.30;99.90
32839;DHT22;19182;41.820;12.808;2023-08-30T09:56:38;24.30;99.90
32839;DHT22;19182;41.820;12.808;2023-08-30T09:59:05;24.50;99.90
32839;DHT22;19182;41.820;12.808;2023-08-30T10:01:31;24.50;99.90
32839;DHT22;19182;41.820;12.808;2023-08-30T10:03:57;24.60;99.90
32839;DHT22;19182;41.820;12.808;2023-08-30T10:06:24;24.60;99.90
32839;DHT22;19182;41.820;12.808;2023-08-30T10:08:51;24.80;99.90
32839;DHT22;19182;41.820;12.808;2023-08-30T10:11:18;25.10;99.90
32839;DHT22;19182;41.820;12.808;2023-08-30T10:13:44;25.00;99.90
32839;DHT22;19182;41.820;12.808;2023-08-30T10:16:19;24.10;99.90
32839;DHT22;19182;41.820;12.808;2023-08-30T10:18:52;23.60;99.90
32839;DHT22;19182;41.820;12.808;2023-08-30T10:21:19;23.30;99.90
32839;DHT22;19182;41.820;12.808;2023-08-30T10:23:48;22.60;99.90
32839;DHT22;19182;41.820;12.808;2023-08-30T10:26:17;22.30;99.90
32839;DHT22;19182;41.820;12.808;2023-08-30T10:28:44;21.90;99.90
32839;DHT22;19182;41.820;12.808;2023-08-30T10:31:12;21.70;99.90
32839;DHT22;19182;41.820;12.808;2023-08-30T10:33:53;21.70;99.90
32839;DHT22;19182;41.820;12.808;2023-08-30T10:36:26;21.60;99.90
32839;DHT22;19182;41.820;12.808;2023-08-30T10:38:55;21.50;99.90
32839;DHT22;19182;41.820;12.808;2023-08-30T10:41:30;21.40;99.90
32839;DHT22;19182;41.820;12.808;2023-08-30T10:43:56;21.90;99.90
32839;DHT22;19182;41.820;12.808;2023-08-30T10:46:32;22.50;99.90
32839;DHT22;19182;41.820;12.808;2023-08-30T10:49:14;22.70;99.90
32839;DHT22;19182;41.820;12.808;2023-08-30T10:51:41;22.80;99.90
32839;DHT22;19182;41.820;12.808;2023-08-30T10:54:18;22.70;99.90
32839;DHT22;19182;41.820;12.808;2023-08-30T10:56:56;23.00;99.90
32839;DHT22;19182;41.820;12.808;2023-08-30T10:59:25;23.60;99.90
32839;DHT22;19182;41.820;12.808;2023-08-30T11:01:52;23.80;99.90
32839;DHT22;19182;41.820;12.808;2023-08-30T11:04:18;23.60;99.90
32839;DHT22;19182;41.820;12.808;2023-08-30T11:06:46;23.50;99.90
32839;DHT22;19182;41.820;12.808;2023-08-30T11:09:30;23.20;99.90
32839;DHT22;19182;41.820;12.808;2023-08-30T11:12:05;23.10;99.90
32839;DHT22;19182;41.820;12.808;2023-08-30T11:14:31;23.40;99.90
32839;DHT22;19182;41.820;12.808;2023-08-30T11:16:57;23.80;99.90
32839;DHT22;19182;41.820;12.808;2023-08-30T11:19:23;23.80;99.90
32839;DHT22;19182;41.820;12.808;2023-08-30T11:21:49;24.30;99.90
32839;DHT22;19182;41.820;12.808;2023-08-30T11:26:55;24.00;99.90
32839;DHT22;19182;41.820;12.808;2023-08-30T11:29:21;24.20;99.90
32839;DHT22;19182;41.820;12.808;2023-08-30T11:31:49;24.50;99.90
32839;DHT22;19182;41.820;12.808;2023-08-30T11:34:15;25.50;99.90
32839;DHT22;19182;41.820;12.808;2023-08-30T11:36:45;26.20;99.90
32839;DHT22;19182;41.820;12.808;2023-08-30T11:39:13;26.20;99.90
32839;DHT22;19182;41.820;12.808;2023-08-30T11:41:40;26.20;99.90
32839;DHT22;19182;41.820;12.808;2023-08-30T11:44:09;26.10;99.90
32839;DHT22;19182;41.820;12.808;2023-08-30T11:46:37;25.40;99.90
32839;DHT22;19182;41.820;12.808;2023-08-30T11:49:04;25.20;99.90
32839;DHT22;19182;41.820;12.808;2023-08-30T11:51:30;24.90;99.90
32839;DHT22;19182;41.820;12.808;2023-08-30T11:53:56;24.50;99.90
32839;DHT22;19182;41.820;12.808;2023-08-30T11:56:23;24.40;99.90
32839;DHT22;19182;41.820;12.808;2023-08-30T11:58:50;24.70;99.90
32839;DHT22;19182;41.820;12.808;2023-08-30T12:01:18;24.60;99.90
32839;DHT22;19182;41.820;12.808;2023-08-30T12:03:44;24.50;99.90
32839;DHT22;19182;41.820;12.808;2023-08-30T12:06:15;24.70;99.90
32839;DHT22;19182;41.820;12.808;2023-08-30T12:08:40;24.70;99.90
32839;DHT22;19182;41.820;12.808;2023-08-30T12:11:17;24.90;99.90
32839;DHT22;19182;41.820;12.808;2023-08-30T12:13:44;24.90;99.90
32839;DHT22;19182;41.820;12.808;2023-08-30T12:16:15;24.80;99.90
32839;DHT22;19182;41.820;12.808;2023-08-30T12:18:43;25.10;99.90
32839;DHT22;19182;41.820;12.808;2023-08-30T12:21:08;25.70;99.90
32839;DHT22;19182;41.820;12.808;2023-08-30T12:23:34;25.60;99.90
32839;DHT22;19182;41.820;12.808;2023-08-30T12:26:07;25.90;99.90
32839;DHT22;19182;41.820;12.808;2023-08-30T12:28:38;26.00;99.90
32839;DHT22;19182;41.820;12.808;2023-08-30T12:31:04;26.40;99.90
32839;DHT22;19182;41.820;12.808;2023-08-30T12:33:30;26.90;99.90
32839;DHT22;19182;41.820;12.808;2023-08-30T12:35:57;27.20;99.90
32839;DHT22;19182;41.820;12.808;2023-08-30T12:38:23;27.40;99.90
32839;DHT22;19182;41.820;12.808;2023-08-30T12:40:51;27.50;99.90
32839;DHT22;19182;41.820;12.808;2023-08-30T12:43:19;27.60;99.90
32839;DHT22;19182;41.820;12.808;2023-08-30T12:45:47;27.80;99.90
32839;DHT22;19182;41.820;12.808;2023-08-30T12:48:31;27.80;99.90
32839;DHT22;19182;41.820;12.808;2023-08-30T12:51:15;27.80;99.90
32839;DHT22;19182;41.820;12.808;2023-08-30T12:53:40;27.70;99.90
32839;DHT22;19182;41.820;12.808;2023-08-30T12:56:06;27.10;99.90
32839;DHT22;19182;41.820;12.808;2023-08-30T12:58:32;26.30;99.90
32839;DHT22;19182;41.820;12.808;2023-08-30T13:00:58;26.00;99.90
32839;DHT22;19182;41.820;12.808;2023-08-30T13:03:23;26.00;99.90
32839;DHT22;19182;41.820;12.808;2023-08-30T13:05:49;26.30;99.90
32839;DHT22;19182;41.820;12.808;2023-08-30T13:08:15;26.20;99.90
32839;DHT22;19182;41.820;12.808;2023-08-30T13:10:41;26.10;99.90
32839;DHT22;19182;41.820;12.808;2023-08-30T13:13:06;26.00;99.90
32839;DHT22;19182;41.820;12.808;2023-08-30T13:15:32;26.10;99.90
32839;DHT22;19182;41.820;12.808;2023-08-30T13:17:57;26.30;99.90
32839;DHT22;19182;41.820;12.808;2023-08-30T13:20:23;26.40;99.90
32839;DHT22;19182;41.820;12.808;2023-08-30T13:22:52;26.30;99.90
32839;DHT22;19182;41.820;12.808;2023-08-30T13:25:21;26.40;99.90
32839;DHT22;19182;41.820;12.808;2023-08-30T13:27:49;26.30;99.90
32839;DHT22;19182;41.820;12.808;2023-08-30T13:30:15;26.10;99.90
32839;DHT22;19182;41.820;12.808;2023-08-30T13:32:41;25.80;99.90
32839;DHT22;19182;41.820;12.808;2023-08-30T13:35:08;25.40;99.90
32839;DHT22;19182;41.820;12.808;2023-08-30T13:37:34;25.00;99.90
32839;DHT22;19182;41.820;12.808;2023-08-30T13:39:59;24.90;99.90
32839;DHT22;19182;41.820;12.808;2023-08-30T13:42:25;25.20;99.90
32839;DHT22;19182;41.820;12.808;2023-08-30T13:44:51;25.20;99.90
32839;DHT22;19182;41.820;12.808;2023-08-30T13:47:17;25.40;99.90
32839;DHT22;19182;41.820;12.808;2023-08-30T13:49:42;25.60;99.90
32839;DHT22;19182;41.820;12.808;2023-08-30T13:52:09;25.80;99.90
32839;DHT22;19182;41.820;12.808;2023-08-30T13:54:34;25.90;99.90
32839;DHT22;19182;41.820;12.808;2023-08-30T13:57:00;25.80;99.90
32839;DHT22;19182;41.820;12.808;2023-08-30T13:59:26;25.60;99.90
32839;DHT22;19182;41.820;12.808;2023-08-30T14:01:57;25.60;99.90
32839;DHT22;19182;41.820;12.808;2023-08-30T14:04:25;25.70;99.90
32839;DHT22;19182;41.820;12.808;2023-08-30T14:06:51;25.60;99.90
32839;DHT22;19182;41.820;12.808;2023-08-30T14:09:17;25.50;99.90
32839;DHT22;19182;41.820;12.808;2023-08-30T14:11:44;25.20;99.90
32839;DHT22;19182;41.820;12.808;2023-08-30T14:14:12;25.10;99.90
32839;DHT22;19182;41.820;12.808;2023-08-30T14:16:39;25.10;99.90
32839;DHT22;19182;41.820;12.808;2023-08-30T14:19:05;25.00;99.90
32839;DHT22;19182;41.820;12.808;2023-08-30T14:21:33;24.90;99.90
32839;DHT22;19182;41.820;12.808;2023-08-30T14:24:00;24.80;99.90
32839;DHT22;19182;41.820;12.808;2023-08-30T14:26:27;24.70;99.90
32839;DHT22;19182;41.820;12.808;2023-08-30T14:28:53;24.50;99.90
32839;DHT22;19182;41.820;12.808;2023-08-30T14:31:19;24.30;99.90
32839;DHT22;19182;41.820;12.808;2023-08-30T14:33:45;24.10;99.90
32839;DHT22;19182;41.820;12.808;2023-08-30T14:36:11;24.10;99.90
32839;DHT22;19182;41.820;12.808;2023-08-30T14:38:38;24.00;99.90
32839;DHT22;19182;41.820;12.808;2023-08-30T14:41:03;23.80;99.90
32839;DHT22;19182;41.820;12.808;2023-08-30T14:43:29;23.60;99.90
32839;DHT22;19182;41.820;12.808;2023-08-30T14:46:10;23.80;99.90
32839;DHT22;19182;41.820;12.808;2023-08-30T14:48:36;23.40;99.90
32839;DHT22;19182;41.820;12.808;2023-08-30T14:51:04;23.40;99.90
32839;DHT22;19182;41.820;12.808;2023-08-30T14:53:30;23.40;99.90
32839;DHT22;19182;41.820;12.808;2023-08-30T14:55:56;23.40;99.90
32839;DHT22;19182;41.820;12.808;2023-08-30T14:58:22;23.40;99.90
32839;DHT22;19182;41.820;12.808;2023-08-30T15:00:49;23.50;99.90
32839;DHT22;19182;41.820;12.808;2023-08-30T15:03:15;23.60;99.90
32839;DHT22;19182;41.820;12.808;2023-08-30T15:05:41;23.60;99.90
32839;DHT22;19182;41.820;12.808;2023-08-30T15:08:07;23.60;99.90
32839;DHT22;19182;41.820;12.808;2023-08-30T15:10:33;23.60;99.90
32839;DHT22;19182;41.820;12.808;2023-08-30T15:12:58;23.40;99.90
32839;DHT22;19182;41.820;12.808;2023-08-30T15:15:24;23.50;99.90
32839;DHT22;19182;41.820;12.808;2023-08-30T15:17:52;23.40;99.90
32839;DHT22;19182;41.820;12.808;2023-08-30T15:20:18;23.20;99.90
32839;DHT22;19182;41.820;12.808;2023-08-30T15:22:43;22.90;99.90
32839;DHT22;19182;41.820;12.808;2023-08-30T15:25:09;22.80;99.90
32839;DHT22;19182;41.820;12.808;2023-08-30T15:27:35;22.70;99.90